Aviation Digital Data Service (ADDS)

Output produced by METARs form (0326 UTC 30 May 2017)
found at http://www.aviationweather.gov/adds/metars/
 
ENAT 300250Z AUTO 25007KT 9999 OVC030/// 02/M02 Q1005 RMK WIND 700FT 30010G27KT
TAF ENAT 300200Z 3004/3012 27008KT 9999 FEW015 BKN030 
     TEMPO 3004/3012 28018KT 2000 SHSN VV009
       
ENAN 300320Z 31018KT 9999 -DZ SCT029 BKN045 02/M01 Q1010
TAF ENAN 3000/3024 29015KT 9999 FEW012 BKN025 
     TEMPO 3000/3009 4000 -SHRASN BKN012CB 
     TEMPO 3000/3015 28017G27KT 
     TEMPO 3009/3024 2000 SHRASN VV010 
     BECMG 3015/3017 35010KT
       
ENML 300320Z 03006KT 360V060 9999 FEW015 BKN180 08/04 Q1009
ENNA 300320Z AUTO 26017G32KT 230V290 9999 VV013 02/M03 Q1003 RMK WIND 1800FT 28035KT
TAF ENNA 3000/3024 28012KT 9999 FEW020 BKN035 
     TEMPO 3000/3012 2000 SHSN VV010 
     TEMPO 3000/3006 30020G30KT
       
ENDU 300320Z 26006KT 7000 9999E -SHSN FEW010 SCT018 BKN025 01/M00 Q1009 RMK WIND 1100FT 27010KT WIND 2200FT /////KT
TAF ENDU 3000/3024 29008KT 9999 FEW012 BKN035 
     TEMPO 3000/3015 27015G25KT 
     TEMPO 3009/3024 2000 SHSNRA VV009 
     TEMPO 3000/3009 1000 SHSN VV006
       
ENBR 300320Z 20009KT 9000 BKN003 10/09 Q1008 RMK WIND 1200FT 19010KT
TAF ENBR 3000/3024 18008KT 9999 SCT004 BKN012 
     TEMPO 3000/3008 3000 BR OVC004 
     PROB30 3000/3006 0800 FG VV002 
     BECMG 3008/3011 BKN020
       
ENBO 300320Z 27009KT 9999 FEW030 BKN050 04/M01 Q1013 NOSIG
TAF ENBO 3000/3024 35008KT 9999 FEW020 BKN040
       
ENBN 300320Z AUTO 02009KT 9999NDV NCD 05/M00 Q1013
ENEV 300320Z AUTO VRB02KT 9999 FEW037/// BKN062/// 03/M01 Q1012 RMK WIND 1400FT 28012KT
TAF ENEV 300200Z 3004/3012 VRB05KT 9999 FEW020 BKN040
       
ENFL 300320Z 27004KT 9999 FEW015 SCT022 BKN030 12/11 Q1007
ENHD 300320Z AUTO 29003KT 9000 BKN007/// OVC009/// 10/08 Q1008
TAF ENHD 300200Z 3004/3012 25008KT 9999 BKN008 
     PROB30 3004/3006 3000 BR OVC004 
     BECMG 3008/3010 FEW008 BKN020
       
ENKR 300320Z 26015KT 9999 FEW020 SCT080 01/M04 Q1002 RMK WIND 731FT 27029KT
TAF ENKR 300200Z 3003/3012 26015KT 9999 FEW015 BKN040 
     TEMPO 3003/3012 4000 -SHSN VV012
       
ENCN 300320Z AUTO 17003KT 1000 R03/1800D R21/P2000N BR VV002 12/11 Q1008
TAF ENCN 300200Z 3005/3012 22008KT 9000 SCT003 BKN008 
     PROB40 3005/3007 0800 FG VV002 
     BECMG 3007/3009 SCT020
       
ENKB 300320Z AUTO 03007KT 9999 OVC160/// 06/03 Q1010 RMK WIND 745FT 05014KT
TAF ENKB 300200Z 3004/3012 03008KT 9999 FEW020 BKN160
       
ENOL 300250Z 06006KT CAVOK 05/01 Q1011
TAF ENOL 3000/3024 04005KT 9999 FEW025 SCT200 
     BECMG 3008/3010 36015KT 
     BECMG 3022/3024 04005KT
       
ENGM 300320Z 18006KT 4100 -RA BR BKN003 12/11 Q1008
TAF ENGM 3000/3024 19008KT 9000 -RA SCT004 BKN012 
     TEMPO 3000/3010 2500 RADZ BR OVC004 
     BECMG 3010/3013 FEW012 BKN025 
     PROB30 
     TEMPO 3014/3020 SHRA FEW025CB BKN030
       
ENRO 300320Z AUTO 33003KT 280V010 9999NDV OVC042/// 03/01 Q1009
TAF ENRO 300200Z 3005/3012 VRB05KT 9999 BKN035
       
ENRY 300320Z AUTO 20005KT 2200NDV BR OVC002/// 12/12 Q1008 REDZ
TAF ENRY 3000/3024 19012KT 9000 SCT004 BKN010 
     TEMPO 3000/3008 2000 BR OVC004 
     BECMG 3011/3014 SCT025 
     BECMG 3019/3022 VRB05KT
       
ENZV 300250Z 33004KT 9999 BKN008 09/07 Q1009
TAF ENZV 3000/3024 30008KT 8000 SCT002 BKN008 
     TEMPO 3000/3008 3000 BR OVC003 
     PROB30 3000/3006 0800 FG VV002 
     BECMG 3007/3010 BKN020 
     BECMG 3022/3024 17014KT RA BKN012
       
ENST 300320Z 02011KT 9999 FEW045 04/M03 Q1013 RMK WIND 300FT 02009KT
ENTO 300320Z AUTO 15004KT 2700 BR BKN002/// OVC005/// 12/12 Q1008
TAF ENTO 3000/3024 20010KT 8000 SCT003 BKN008 
     TEMPO 3000/3009 2500 BR OVC002 
     PROB40 
     TEMPO 3000/3007 0300 FG VV001 
     BECMG 3010/3012 SCT025 
     BECMG 3018/3021 VRB05KT
       
ENTC 300320Z 00000KT 7000 -RASN VV007 01/M01 Q1009 RMK WIND 2600FT 30027KT
TAF ENTC 3000/3024 28008KT 9999 FEW015TCU BKN030 
     TEMPO 3000/3024 1000 SHSNRA VV007 
     TEMPO 3000/3012 28018KT
       
ENVA 300320Z 12004KT CAVOK 04/02 Q1011 RMK WIND 670FT 10007KT
TAF ENVA 3000/3024 12008KT 9999 FEW040 
     PROB40 3013/3019 28010KT
       
ENAL 300320Z AUTO 05019KT 9999 OVC140/// 08/06 Q1009
TAF ENAL 300200Z 3004/3012 04018KT 9999 FEW040 BKN160